createdAt,value
2019-01-10T00:01:30.285Z,3.40
2019-01-10T00:03:59.534Z,3.30
2019-01-10T00:06:29.224Z,3.40
2019-01-10T00:08:58.382Z,3.30
2019-01-10T00:11:27.513Z,3.30
2019-01-10T00:13:56.665Z,3.30
2019-01-10T00:16:25.782Z,3.20
2019-01-10T00:18:55.151Z,3.10
2019-01-10T00:21:24.345Z,3.20
2019-01-10T00:23:53.582Z,3.10
2019-01-10T00:26:22.725Z,3.10
2019-01-10T00:28:51.901Z,3.10
2019-01-10T00:31:21.029Z,3.10
2019-01-10T00:33:50.200Z,3.10
2019-01-10T00:36:19.409Z,3.10
2019-01-10T00:38:48.610Z,3.20
2019-01-10T00:41:17.950Z,3.20
2019-01-10T00:43:47.817Z,3.20
2019-01-10T00:46:17.024Z,3.20
2019-01-10T00:48:46.181Z,3.20
2019-01-10T00:51:15.365Z,3.20
2019-01-10T00:53:44.509Z,3.20
2019-01-10T00:56:13.706Z,3.20
2019-01-10T00:58:42.957Z,3.10
2019-01-10T01:01:12.832Z,3.20
2019-01-10T01:03:42.054Z,3.10
2019-01-10T01:06:11.325Z,3.10
2019-01-10T01:08:40.550Z,3.00
2019-01-10T01:11:09.648Z,3.10
2019-01-10T01:13:38.890Z,3.10
2019-01-10T01:16:08.029Z,3.10
2019-01-10T01:18:37.240Z,3.10
2019-01-10T01:21:06.430Z,3.10
2019-01-10T01:23:36.000Z,3.10
2019-01-10T01:26:05.196Z,3.00
2019-01-10T01:28:34.328Z,3.00
2019-01-10T01:31:03.466Z,3.10
2019-01-10T01:33:32.625Z,3.20
2019-01-10T01:36:01.845Z,3.20
2019-01-10T01:38:31.084Z,3.30
2019-01-10T01:41:00.279Z,3.40
2019-01-10T01:43:29.406Z,3.40
2019-01-10T01:45:58.690Z,3.40
2019-01-10T01:48:27.759Z,3.50
2019-01-10T01:50:56.938Z,3.60
2019-01-10T01:53:26.104Z,3.50
2019-01-10T01:55:55.349Z,3.50
2019-01-10T01:58:24.493Z,3.60
2019-01-10T02:00:53.652Z,3.50
2019-01-10T02:03:22.779Z,3.40
2019-01-10T02:05:51.965Z,3.30
2019-01-10T02:08:21.202Z,3.30
2019-01-10T02:10:50.426Z,3.40
2019-01-10T02:13:19.585Z,3.30
2019-01-10T02:15:48.750Z,3.30
2019-01-10T02:18:17.898Z,3.30
2019-01-10T02:20:47.074Z,3.30
2019-01-10T02:23:16.206Z,3.30
2019-01-10T02:25:45.362Z,3.40
2019-01-10T02:28:14.540Z,3.40
2019-01-10T02:30:43.726Z,3.40
2019-01-10T02:33:12.991Z,3.30
2019-01-10T02:35:42.267Z,3.40
2019-01-10T02:38:11.484Z,3.30
2019-01-10T02:40:40.643Z,3.30
2019-01-10T02:43:09.801Z,3.30
2019-01-10T02:45:38.954Z,3.30
2019-01-10T02:48:08.115Z,3.20
2019-01-10T02:50:37.348Z,3.10
2019-01-10T02:53:06.494Z,3.10
2019-01-10T02:55:35.600Z,3.10
2019-01-10T02:58:04.763Z,3.10
2019-01-10T03:00:34.094Z,3.30
2019-01-10T03:03:03.243Z,3.30
2019-01-10T03:05:32.469Z,3.30
2019-01-10T03:08:01.693Z,3.30
2019-01-10T03:10:30.965Z,3.30
2019-01-10T03:13:00.214Z,3.20
2019-01-10T03:15:29.798Z,3.30
2019-01-10T03:17:58.922Z,3.30
2019-01-10T03:20:28.158Z,3.30
2019-01-10T03:22:57.299Z,3.30
2019-01-10T03:25:26.572Z,3.20
2019-01-10T03:27:55.774Z,3.30
2019-01-10T03:30:24.917Z,3.20
2019-01-10T03:32:54.126Z,3.20
2019-01-10T03:35:23.408Z,3.20
2019-01-10T03:37:52.637Z,3.20
2019-01-10T03:40:22.856Z,3.20
2019-01-10T03:42:52.157Z,3.10
2019-01-10T03:45:22.760Z,3.20
2019-01-10T03:47:51.961Z,3.20
2019-01-10T03:50:21.103Z,3.20
2019-01-10T03:52:50.216Z,3.20
2019-01-10T03:55:19.448Z,3.20
2019-01-10T03:57:48.570Z,3.20
2019-01-10T04:00:20.834Z,3.30
2019-01-10T04:02:50.173Z,3.30
2019-01-10T04:05:19.393Z,3.30
2019-01-10T04:07:48.879Z,3.30
2019-01-10T04:10:18.282Z,3.30
2019-01-10T04:12:47.459Z,3.40
2019-01-10T04:15:17.163Z,3.40
2019-01-10T04:17:46.302Z,3.40
2019-01-10T04:20:17.047Z,3.30
2019-01-10T04:22:46.276Z,3.20
2019-01-10T04:25:15.976Z,3.20
2019-01-10T04:27:45.097Z,3.10
2019-01-10T04:30:16.772Z,3.00
2019-01-10T04:32:45.898Z,3.00
2019-01-10T04:35:15.615Z,2.80
2019-01-10T04:37:44.793Z,2.80
2019-01-10T04:40:16.683Z,2.80
2019-01-10T04:42:46.126Z,2.70
2019-01-10T04:45:15.389Z,2.70
2019-01-10T04:47:44.537Z,2.70
2019-01-10T04:50:14.498Z,2.70
2019-01-10T04:52:43.726Z,2.70
2019-01-10T04:55:13.419Z,2.90
2019-01-10T04:57:42.613Z,2.90
2019-01-10T05:00:20.818Z,2.80
2019-01-10T05:03:09.428Z,2.80
2019-01-10T05:05:38.577Z,2.80
2019-01-10T05:08:07.782Z,3.00
2019-01-10T05:10:36.968Z,3.10
2019-01-10T05:13:06.113Z,3.10
2019-01-10T05:15:35.405Z,3.10
2019-01-10T05:18:04.597Z,3.10
2019-01-10T05:20:33.783Z,3.10
2019-01-10T05:23:03.126Z,3.20
2019-01-10T05:25:32.417Z,3.20
2019-01-10T05:28:03.454Z,3.10
2019-01-10T05:30:32.715Z,3.20
2019-01-10T05:33:02.383Z,3.10
2019-01-10T05:35:33.382Z,3.10
2019-01-10T05:38:02.567Z,3.10
2019-01-10T05:40:31.809Z,3.10
2019-01-10T05:43:01.254Z,3.10
2019-01-10T05:45:30.553Z,3.20
2019-01-10T05:47:59.787Z,3.20
2019-01-10T05:50:29.053Z,3.20
2019-01-10T05:52:58.370Z,3.20
2019-01-10T05:55:27.643Z,3.20
2019-01-10T05:57:56.905Z,3.10
2019-01-10T06:00:29.338Z,3.10
2019-01-10T06:02:59.489Z,3.10
2019-01-10T06:05:28.769Z,3.10
2019-01-10T06:07:58.162Z,3.10
2019-01-10T06:10:28.879Z,3.10
2019-01-10T06:12:58.316Z,3.20
2019-01-10T06:15:27.689Z,3.20
2019-01-10T06:17:56.984Z,3.30
2019-01-10T06:20:26.320Z,3.40
2019-01-10T06:22:56.084Z,3.30
2019-01-10T06:25:25.249Z,3.30
2019-01-10T06:27:54.423Z,3.30
2019-01-10T06:30:24.690Z,3.30
2019-01-10T06:32:53.928Z,3.30
2019-01-10T06:35:23.213Z,3.50
2019-01-10T06:37:52.596Z,3.50
2019-01-10T06:40:22.493Z,3.40
2019-01-10T06:42:51.667Z,3.40
2019-01-10T06:45:22.467Z,3.30
2019-01-10T06:47:51.707Z,3.30
2019-01-10T06:50:21.323Z,3.30
2019-01-10T06:52:50.665Z,3.20
2019-01-10T06:55:19.886Z,3.20
2019-01-10T06:57:49.058Z,3.20
2019-01-10T07:00:23.121Z,3.20
2019-01-10T07:02:52.580Z,3.20
2019-01-10T07:05:22.237Z,3.20
2019-01-10T07:07:56.571Z,3.20
2019-01-10T07:10:24.717Z,3.20
2019-01-10T07:12:57.341Z,3.10
2019-01-10T07:15:26.567Z,3.10
2019-01-10T07:17:55.767Z,3.10
2019-01-10T07:20:24.903Z,3.10
2019-01-10T07:22:54.895Z,3.10
2019-01-10T07:25:24.659Z,3.10
2019-01-10T07:27:56.475Z,3.10
2019-01-10T07:30:36.232Z,3.10
2019-01-10T07:33:02.012Z,3.10
2019-01-10T07:35:32.735Z,3.10
2019-01-10T07:38:01.880Z,3.10
2019-01-10T07:40:31.079Z,3.10
2019-01-10T07:43:00.245Z,3.10
2019-01-10T07:45:29.660Z,3.10
2019-01-10T07:47:59.155Z,3.10
2019-01-10T07:50:35.947Z,3.20
2019-01-10T07:53:23.136Z,3.20
2019-01-10T07:55:52.295Z,3.10
2019-01-10T07:58:21.568Z,3.20
2019-01-10T08:00:50.938Z,3.10
2019-01-10T08:03:20.186Z,3.10
2019-01-10T08:05:49.343Z,3.20
2019-01-10T08:08:18.507Z,3.20
2019-01-10T08:10:47.777Z,3.10
2019-01-10T08:13:19.527Z,3.20
2019-01-10T08:15:48.515Z,3.20
2019-01-10T08:18:17.906Z,3.20
2019-01-10T08:20:47.136Z,3.20
2019-01-10T08:23:18.620Z,3.20
2019-01-10T08:25:47.726Z,3.20
2019-01-10T08:28:17.163Z,3.20
2019-01-10T08:30:46.369Z,3.20
2019-01-10T08:33:15.611Z,3.30
2019-01-10T08:35:45.197Z,3.30
2019-01-10T08:38:14.469Z,3.40
2019-01-10T08:40:43.664Z,3.30
2019-01-10T08:43:12.883Z,3.40
2019-01-10T08:45:42.090Z,3.40
2019-01-10T08:48:11.296Z,3.50
2019-01-10T08:50:40.501Z,3.50
2019-01-10T08:53:09.658Z,3.50
2019-01-10T08:55:38.930Z,3.60
2019-01-10T08:58:08.120Z,3.70
2019-01-10T09:00:37.368Z,3.70
2019-01-10T09:03:06.629Z,3.60
2019-01-10T09:05:35.826Z,3.60
2019-01-10T09:08:05.190Z,3.70
2019-01-10T09:10:35.444Z,3.70
2019-01-10T09:13:06.586Z,3.70
2019-01-10T09:15:35.826Z,3.60
2019-01-10T09:18:06.058Z,3.60
2019-01-10T09:20:35.239Z,3.50
2019-01-10T09:23:04.430Z,3.50
2019-01-10T09:25:33.656Z,3.60
2019-01-10T09:28:02.813Z,3.60
2019-01-10T09:30:32.363Z,3.60
2019-01-10T09:33:01.623Z,3.60
2019-01-10T09:35:30.773Z,3.60
2019-01-10T09:37:59.919Z,3.70
2019-01-10T09:40:29.057Z,3.70
2019-01-10T09:42:58.306Z,3.70
2019-01-10T09:45:27.758Z,3.70
2019-01-10T09:47:56.911Z,3.60
2019-01-10T09:50:26.104Z,3.70
2019-01-10T09:52:55.623Z,3.70
2019-01-10T09:55:24.787Z,3.70
2019-01-10T09:57:54.623Z,3.80
2019-01-10T10:00:33.066Z,3.80
2019-01-10T10:03:02.241Z,3.80
2019-01-10T10:05:31.400Z,3.60
2019-01-10T10:08:00.567Z,3.60
2019-01-10T10:10:29.723Z,3.70
2019-01-10T10:12:59.078Z,3.80
2019-01-10T10:15:28.230Z,3.80
2019-01-10T10:17:57.408Z,3.90
2019-01-10T10:20:26.658Z,3.70
2019-01-10T10:22:56.084Z,3.90
2019-01-10T10:25:26.081Z,4.00
2019-01-10T10:27:55.457Z,4.10
2019-01-10T10:30:24.685Z,4.20
2019-01-10T10:32:53.973Z,4.30
2019-01-10T10:35:23.559Z,4.50
2019-01-10T10:37:53.132Z,4.60
2019-01-10T10:40:26.347Z,4.80
2019-01-10T10:42:57.773Z,4.70
2019-01-10T10:45:28.419Z,4.80
2019-01-10T10:47:57.639Z,4.90
2019-01-10T10:50:28.582Z,5.20
2019-01-10T10:52:57.919Z,5.40
2019-01-10T10:55:27.136Z,5.70
2019-01-10T10:57:56.381Z,6.20
2019-01-10T11:00:30.303Z,6.60
2019-01-10T11:03:01.034Z,6.90
2019-01-10T11:05:30.325Z,7.10
2019-01-10T11:08:00.012Z,7.30
2019-01-10T11:10:29.635Z,7.30
2019-01-10T11:12:58.970Z,7.30
2019-01-10T11:15:28.306Z,7.50
2019-01-10T11:17:57.859Z,7.50
2019-01-10T11:20:27.390Z,7.60
2019-01-10T11:22:56.618Z,7.50
2019-01-10T11:25:27.413Z,7.40
2019-01-10T11:27:57.581Z,7.20
2019-01-10T11:30:26.837Z,7.10
2019-01-10T11:32:56.254Z,6.80
2019-01-10T11:35:25.461Z,6.80
2019-01-10T11:37:55.038Z,6.80
2019-01-10T11:40:26.563Z,7.00
2019-01-10T11:42:55.785Z,7.10
2019-01-10T11:45:29.057Z,7.10
2019-01-10T11:47:58.401Z,7.10
2019-01-10T11:50:27.795Z,6.70
2019-01-10T11:52:57.141Z,6.20
2019-01-10T11:55:26.375Z,5.80
2019-01-10T11:57:55.605Z,5.40
2019-01-10T12:00:30.063Z,5.20
2019-01-10T12:03:02.016Z,5.30
2019-01-10T12:05:31.179Z,5.10
2019-01-10T12:08:00.474Z,5.00
2019-01-10T12:10:29.888Z,5.00
2019-01-10T12:13:00.024Z,5.00
2019-01-10T12:15:29.203Z,5.10
2019-01-10T12:17:58.399Z,5.00
2019-01-10T12:20:31.900Z,4.80
2019-01-10T12:23:01.172Z,5.00
2019-01-10T12:25:30.887Z,5.10
2019-01-10T12:28:00.057Z,5.20
2019-01-10T12:30:31.224Z,5.20
2019-01-10T12:33:00.446Z,5.30
2019-01-10T12:35:29.697Z,5.30
2019-01-10T12:37:59.742Z,5.40
2019-01-10T12:40:30.047Z,5.40
2019-01-10T12:42:59.686Z,5.50
2019-01-10T12:45:29.330Z,5.50
2019-01-10T12:47:58.559Z,5.50
2019-01-10T12:50:32.416Z,5.50
2019-01-10T12:53:04.317Z,5.60
2019-01-10T12:55:33.824Z,5.50
2019-01-10T12:58:04.143Z,5.40
2019-01-10T13:00:33.430Z,5.30
2019-01-10T13:03:02.894Z,5.10
2019-01-10T13:05:32.180Z,5.10
2019-01-10T13:08:03.679Z,5.20
2019-01-10T13:10:32.357Z,5.10
2019-01-10T13:13:03.024Z,5.00
2019-01-10T13:15:32.306Z,5.00
2019-01-10T13:18:01.493Z,5.00
2019-01-10T13:20:31.513Z,5.00
2019-01-10T13:23:00.721Z,4.90
2019-01-10T13:25:30.028Z,4.90
2019-01-10T13:28:01.144Z,4.80
2019-01-10T13:30:32.727Z,4.80
2019-01-10T13:33:39.455Z,4.80
2019-01-10T13:36:10.902Z,4.80
2019-01-10T13:38:41.635Z,4.80
2019-01-10T13:41:11.297Z,4.80
2019-01-10T13:43:40.459Z,4.60
2019-01-10T13:46:09.722Z,4.60
2019-01-10T13:48:38.875Z,4.70
2019-01-10T13:51:08.176Z,4.80
2019-01-10T13:53:37.385Z,4.80
2019-01-10T13:56:06.667Z,4.80
2019-01-10T13:58:36.615Z,4.80
2019-01-10T14:03:38.332Z,4.80
2019-01-10T14:06:09.824Z,4.80
2019-01-10T14:08:40.424Z,4.70
2019-01-10T14:11:11.462Z,4.70
2019-01-10T14:13:40.836Z,4.50
2019-01-10T14:16:13.210Z,4.30
2019-01-10T14:18:42.381Z,4.20
2019-01-10T14:21:11.623Z,3.90
2019-01-10T14:23:44.299Z,3.90
2019-01-10T14:26:17.525Z,4.00
2019-01-10T14:28:48.214Z,4.00
2019-01-10T14:31:17.457Z,4.10
2019-01-10T14:33:47.592Z,4.10
2019-01-10T14:36:19.724Z,4.20
2019-01-10T14:38:51.026Z,4.10
2019-01-10T14:41:20.433Z,4.00
2019-01-10T14:43:51.722Z,4.00
2019-01-10T14:46:21.503Z,3.90
2019-01-10T14:48:51.080Z,4.00
2019-01-10T14:51:20.629Z,3.90
2019-01-10T14:53:53.151Z,3.80
2019-01-10T14:56:23.517Z,3.90
2019-01-10T14:58:55.665Z,4.00
2019-01-10T15:01:24.977Z,3.90
2019-01-10T15:03:54.325Z,4.00
2019-01-10T15:06:23.739Z,3.90
2019-01-10T15:08:55.079Z,3.80
2019-01-10T15:11:24.313Z,3.80
2019-01-10T15:13:53.613Z,3.90
2019-01-10T15:16:25.103Z,3.90
2019-01-10T15:18:55.139Z,3.80
2019-01-10T15:21:25.213Z,3.80
2019-01-10T15:23:54.393Z,3.90
2019-01-10T15:26:23.701Z,3.80
2019-01-10T15:28:55.046Z,3.80
2019-01-10T15:31:24.290Z,3.80
2019-01-10T15:33:53.822Z,3.70
2019-01-10T15:36:23.908Z,3.60
2019-01-10T15:38:53.319Z,3.50
2019-01-10T15:41:22.450Z,3.50
2019-01-10T15:43:51.720Z,3.60
2019-01-10T15:46:20.937Z,3.60
2019-01-10T15:48:50.236Z,3.60
2019-01-10T15:51:22.318Z,3.60
2019-01-10T15:53:51.561Z,3.60
2019-01-10T15:56:24.239Z,3.60
2019-01-10T15:58:54.366Z,3.60
2019-01-10T16:01:23.658Z,3.60
2019-01-10T16:03:53.764Z,3.60
2019-01-10T16:06:23.337Z,3.60
2019-01-10T16:08:52.616Z,3.70
2019-01-10T16:11:23.801Z,3.70
2019-01-10T16:13:53.081Z,3.70
2019-01-10T16:16:22.350Z,3.70
2019-01-10T16:18:51.515Z,3.60
2019-01-10T16:21:20.817Z,3.70
2019-01-10T16:23:50.444Z,3.60
2019-01-10T16:26:20.429Z,3.60
2019-01-10T16:28:49.761Z,3.60
2019-01-10T16:31:19.174Z,3.60
2019-01-10T16:33:48.625Z,3.50
2019-01-10T16:36:17.965Z,3.60
2019-01-10T16:38:47.153Z,3.50
2019-01-10T16:41:19.637Z,3.50
2019-01-10T16:43:48.839Z,3.50
2019-01-10T16:46:19.617Z,3.50
2019-01-10T16:48:49.225Z,3.60
2019-01-10T16:51:19.772Z,3.60
2019-01-10T16:53:48.969Z,3.60
2019-01-10T16:56:18.192Z,3.60
2019-01-10T16:58:48.596Z,3.70
2019-01-10T17:01:17.881Z,3.70
2019-01-10T17:03:48.221Z,3.60
2019-01-10T17:06:17.462Z,3.70
2019-01-10T17:08:47.822Z,3.60
2019-01-10T17:11:17.035Z,3.70
2019-01-10T17:13:46.354Z,3.70
2019-01-10T17:16:15.990Z,3.50
2019-01-10T17:18:45.257Z,3.60
2019-01-10T17:21:14.477Z,3.80
2019-01-10T17:23:43.791Z,3.70
2019-01-10T17:26:19.202Z,3.70
2019-01-10T17:28:51.483Z,3.70
2019-01-10T17:31:25.960Z,3.70
2019-01-10T17:33:59.287Z,3.70
2019-01-10T17:36:47.677Z,3.70
2019-01-10T17:39:17.130Z,3.70
2019-01-10T17:41:46.514Z,3.70
2019-01-10T17:44:15.840Z,3.70
2019-01-10T17:46:45.254Z,3.70
2019-01-10T17:49:15.560Z,3.70
2019-01-10T17:51:44.820Z,3.80
2019-01-10T17:54:14.328Z,3.70
2019-01-10T17:56:44.029Z,3.70
2019-01-10T17:59:21.637Z,3.70
2019-01-10T18:01:52.426Z,3.70
2019-01-10T18:04:21.824Z,3.80
2019-01-10T18:06:51.413Z,3.80
2019-01-10T18:09:21.198Z,3.70
2019-01-10T18:11:51.896Z,3.70
2019-01-10T18:14:22.151Z,3.70
2019-01-10T18:16:52.293Z,3.70
2019-01-10T18:19:23.038Z,3.70
2019-01-10T18:21:53.192Z,3.70
2019-01-10T18:24:22.620Z,3.70
2019-01-10T18:29:48.926Z,3.70
2019-01-10T18:32:19.968Z,3.70
2019-01-10T18:34:52.174Z,3.70
2019-01-10T18:37:21.420Z,3.80
2019-01-10T18:39:50.740Z,3.80
2019-01-10T18:42:19.998Z,3.80
2019-01-10T18:44:50.647Z,3.80
2019-01-10T18:47:19.953Z,3.80
2019-01-10T18:49:49.649Z,3.80
2019-01-10T18:52:20.303Z,3.70
2019-01-10T18:54:49.711Z,3.80
2019-01-10T18:57:19.582Z,4.00
2019-01-10T18:59:51.768Z,4.00
2019-01-10T19:02:22.800Z,4.10
2019-01-10T19:05:03.304Z,4.10
2019-01-10T19:07:34.250Z,4.00
2019-01-10T19:10:04.095Z,4.00
2019-01-10T19:12:33.592Z,3.90
2019-01-10T19:15:03.859Z,4.00
2019-01-10T19:17:33.229Z,4.00
2019-01-10T19:20:03.109Z,4.00
2019-01-10T19:22:32.648Z,3.90
2019-01-10T19:25:05.144Z,3.90
2019-01-10T19:27:34.873Z,3.90
2019-01-10T19:30:05.157Z,3.90
2019-01-10T19:32:36.053Z,3.90
2019-01-10T19:35:05.824Z,3.90
2019-01-10T19:37:38.904Z,3.90
2019-01-10T19:40:10.414Z,3.80
2019-01-10T19:42:39.836Z,3.80
2019-01-10T19:45:11.072Z,3.80
2019-01-10T19:47:41.739Z,3.80
2019-01-10T19:50:14.582Z,3.80
2019-01-10T19:52:44.506Z,3.80
2019-01-10T19:55:16.520Z,3.90
2019-01-10T19:57:46.106Z,3.90
2019-01-10T20:00:21.170Z,3.90
2019-01-10T20:02:52.098Z,3.90
2019-01-10T20:05:21.346Z,3.90
2019-01-10T20:07:52.064Z,3.90
2019-01-10T20:10:21.544Z,3.90
2019-01-10T20:12:50.870Z,3.90
2019-01-10T20:15:21.339Z,3.90
2019-01-10T20:17:51.490Z,3.90
2019-01-10T20:20:24.582Z,3.90
2019-01-10T20:22:54.840Z,3.90
2019-01-10T20:25:24.189Z,3.90
2019-01-10T20:27:53.643Z,3.90
2019-01-10T20:30:26.106Z,3.90
2019-01-10T20:32:56.479Z,3.90
2019-01-10T20:35:26.192Z,3.80
2019-01-10T20:37:55.584Z,3.90
2019-01-10T20:40:26.909Z,3.90
2019-01-10T20:42:56.549Z,3.90
2019-01-10T20:45:26.707Z,3.90
2019-01-10T20:50:48.379Z,3.90
2019-01-10T20:53:19.483Z,3.90
2019-01-10T20:55:48.595Z,3.90
2019-01-10T20:58:17.879Z,3.90
2019-01-10T21:00:47.264Z,3.90
2019-01-10T21:03:16.467Z,3.90
2019-01-10T21:05:45.800Z,3.90
2019-01-10T21:08:15.051Z,3.90
2019-01-10T21:10:44.430Z,3.90
2019-01-10T21:13:13.740Z,3.90
2019-01-10T21:15:43.449Z,3.90
2019-01-10T21:18:13.963Z,3.90
2019-01-10T21:20:43.669Z,3.80
2019-01-10T21:23:12.899Z,3.80
2019-01-10T21:25:42.232Z,3.80
2019-01-10T21:28:11.495Z,3.80
2019-01-10T21:30:40.821Z,3.80
2019-01-10T21:33:10.118Z,3.80
2019-01-10T21:35:42.163Z,3.80
2019-01-10T21:38:13.009Z,3.70
2019-01-10T21:40:44.673Z,3.60
2019-01-10T21:43:14.989Z,3.70
2019-01-10T21:45:45.827Z,3.60
2019-01-10T21:48:22.543Z,3.60
2019-01-10T21:50:51.936Z,3.50
2019-01-10T21:53:25.219Z,3.50
2019-01-10T21:55:54.530Z,3.40
2019-01-10T21:58:25.827Z,3.50
2019-01-10T22:00:56.402Z,3.40
2019-01-10T22:03:25.878Z,3.50
2019-01-10T22:05:57.121Z,3.40
2019-01-10T22:08:26.431Z,3.40
2019-01-10T22:10:55.657Z,3.40
2019-01-10T22:13:24.924Z,3.40
2019-01-10T22:15:54.643Z,3.40
2019-01-10T22:18:23.824Z,3.40
2019-01-10T22:21:23.671Z,3.40
2019-01-10T22:23:52.931Z,3.50
2019-01-10T22:26:22.547Z,3.40
2019-01-10T22:28:51.789Z,3.40
2019-01-10T22:31:22.321Z,3.40
2019-01-10T22:33:52.325Z,3.40
2019-01-10T22:36:21.568Z,3.50
2019-01-10T22:38:52.886Z,3.40
2019-01-10T22:41:23.524Z,3.40
2019-01-10T22:43:53.308Z,3.50
2019-01-10T22:46:22.632Z,3.50
2019-01-10T22:48:54.930Z,3.40
2019-01-10T22:51:24.261Z,3.50
2019-01-10T22:53:55.205Z,3.50
2019-01-10T22:56:24.432Z,3.50
2019-01-10T22:58:54.354Z,3.50
2019-01-10T23:01:50.931Z,3.60
2019-01-10T23:04:33.327Z,3.50
2019-01-10T23:07:02.476Z,3.50
2019-01-10T23:09:31.988Z,3.50
2019-01-10T23:12:07.018Z,3.50
2019-01-10T23:14:36.288Z,3.50
2019-01-10T23:17:06.681Z,3.50
2019-01-10T23:19:39.134Z,3.50
2019-01-10T23:22:13.775Z,3.60
2019-01-10T23:24:43.367Z,3.50
2019-01-10T23:27:12.603Z,3.60
2019-01-10T23:29:41.807Z,3.50
2019-01-10T23:32:12.999Z,3.50
2019-01-10T23:34:48.400Z,3.40
2019-01-10T23:37:22.450Z,3.40
2019-01-10T23:39:52.377Z,3.30
2019-01-10T23:42:21.546Z,3.40
2019-01-10T23:44:50.737Z,3.40
2019-01-10T23:47:19.975Z,3.40
2019-01-10T23:49:49.174Z,3.40
2019-01-10T23:52:18.474Z,3.30
2019-01-10T23:54:47.690Z,3.30
2019-01-10T23:57:16.937Z,3.30
2019-01-10T23:59:46.283Z,3.30
